Unalakleet, Alaska
Current Conditions -  °F | °C
As of 1:16 PM on Saturday 25 Oct 2014 (Local Time) from PAUN Reporting Station
Overcast Overcast  
Wind Chill: 26°   Ceiling: 2000
Heat Index: 34°   Visibility: 8mi
Dew Point: 28°   Wind: 10mph
Humidity: 81%   Direction: 160°SSE
Pressure: 29.71"   Gusts: NA
Location:  63.88°N, 160.79°W
Report Text: PAUN 252116Z AUTO 16009KT 8SM OVC020 01/M02 A2971 RMK AO1
Loading
Personal Weather Stations






























Interactive Weather Map
Tropical Storm Tracking
New forecast layout! Learn more

10-Day Weather Forecast

Advertisements
Track Severe Weather on mobile